sensor_id;sensor_type;location;lat;lon;timestamp;P1;durP1;ratioP1;P2;durP2;ratioP2
57047;SDS011;42934;54.294;18.598;2024-01-30T00:02:57;45.00;;;20.67;;
57047;SDS011;42934;54.294;18.598;2024-01-30T00:05:27;43.35;;;21.15;;
57047;SDS011;42934;54.294;18.598;2024-01-30T00:07:56;45.67;;;20.92;;
57047;SDS011;42934;54.294;18.598;2024-01-30T00:10:26;40.67;;;21.13;;
57047;SDS011;42934;54.294;18.598;2024-01-30T00:12:56;44.15;;;21.60;;
57047;SDS011;42934;54.294;18.598;2024-01-30T00:15:25;41.42;;;20.75;;
57047;SDS011;42934;54.294;18.598;2024-01-30T00:17:54;39.95;;;20.02;;
57047;SDS011;42934;54.294;18.598;2024-01-30T00:20:24;39.15;;;20.40;;
57047;SDS011;42934;54.294;18.598;2024-01-30T00:22:53;40.97;;;19.75;;
57047;SDS011;42934;54.294;18.598;2024-01-30T00:25:22;40.88;;;19.65;;
57047;SDS011;42934;54.294;18.598;2024-01-30T00:27:52;39.75;;;18.90;;
57047;SDS011;42934;54.294;18.598;2024-01-30T00:30:22;35.53;;;18.88;;
57047;SDS011;42934;54.294;18.598;2024-01-30T00:35:23;35.80;;;17.50;;
57047;SDS011;42934;54.294;18.598;2024-01-30T00:37:53;41.47;;;18.70;;
57047;SDS011;42934;54.294;18.598;2024-01-30T00:40:23;37.63;;;17.98;;
57047;SDS011;42934;54.294;18.598;2024-01-30T00:42:52;40.38;;;18.45;;
57047;SDS011;42934;54.294;18.598;2024-01-30T00:45:22;44.40;;;19.85;;
57047;SDS011;42934;54.294;18.598;2024-01-30T00:47:51;44.65;;;19.98;;
57047;SDS011;42934;54.294;18.598;2024-01-30T00:50:21;39.08;;;19.63;;
57047;SDS011;42934;54.294;18.598;2024-01-30T00:52:50;42.80;;;20.98;;
57047;SDS011;42934;54.294;18.598;2024-01-30T00:55:19;41.50;;;20.23;;
57047;SDS011;42934;54.294;18.598;2024-01-30T00:57:48;42.35;;;20.98;;
57047;SDS011;42934;54.294;18.598;2024-01-30T01:00:18;41.00;;;21.55;;
57047;SDS011;42934;54.294;18.598;2024-01-30T01:02:49;44.50;;;21.25;;
57047;SDS011;42934;54.294;18.598;2024-01-30T01:05:18;42.13;;;20.63;;
57047;SDS011;42934;54.294;18.598;2024-01-30T01:07:47;42.67;;;20.63;;
57047;SDS011;42934;54.294;18.598;2024-01-30T01:10:17;45.80;;;22.05;;
57047;SDS011;42934;54.294;18.598;2024-01-30T01:12:46;41.75;;;20.05;;
57047;SDS011;42934;54.294;18.598;2024-01-30T01:15:16;34.20;;;18.92;;
57047;SDS011;42934;54.294;18.598;2024-01-30T01:17:45;37.45;;;20.30;;
57047;SDS011;42934;54.294;18.598;2024-01-30T01:20:16;47.50;;;21.30;;
57047;SDS011;42934;54.294;18.598;2024-01-30T01:22:45;45.72;;;21.48;;
57047;SDS011;42934;54.294;18.598;2024-01-30T01:25:15;44.25;;;21.45;;
57047;SDS011;42934;54.294;18.598;2024-01-30T01:27:44;41.70;;;20.80;;
57047;SDS011;42934;54.294;18.598;2024-01-30T01:30:18;47.00;;;22.20;;
57047;SDS011;42934;54.294;18.598;2024-01-30T01:35:24;48.15;;;21.25;;
57047;SDS011;42934;54.294;18.598;2024-01-30T01:37:53;47.78;;;22.95;;
57047;SDS011;42934;54.294;18.598;2024-01-30T01:40:23;47.78;;;22.48;;
57047;SDS011;42934;54.294;18.598;2024-01-30T01:42:53;46.35;;;22.95;;
57047;SDS011;42934;54.294;18.598;2024-01-30T01:45:23;45.47;;;22.67;;
57047;SDS011;42934;54.294;18.598;2024-01-30T01:47:52;44.53;;;22.40;;
57047;SDS011;42934;54.294;18.598;2024-01-30T01:50:24;51.65;;;23.48;;
57047;SDS011;42934;54.294;18.598;2024-01-30T01:52:54;47.85;;;22.50;;
57047;SDS011;42934;54.294;18.598;2024-01-30T01:55:23;52.22;;;23.75;;
57047;SDS011;42934;54.294;18.598;2024-01-30T01:57:55;48.25;;;22.75;;
57047;SDS011;42934;54.294;18.598;2024-01-30T02:00:24;47.53;;;22.52;;
57047;SDS011;42934;54.294;18.598;2024-01-30T02:02:54;42.15;;;22.20;;
57047;SDS011;42934;54.294;18.598;2024-01-30T02:05:26;48.67;;;23.55;;
57047;SDS011;42934;54.294;18.598;2024-01-30T02:07:55;46.50;;;23.98;;
57047;SDS011;42934;54.294;18.598;2024-01-30T02:10:25;51.65;;;23.50;;
57047;SDS011;42934;54.294;18.598;2024-01-30T02:12:54;46.05;;;22.75;;
57047;SDS011;42934;54.294;18.598;2024-01-30T02:15:24;46.90;;;23.23;;
57047;SDS011;42934;54.294;18.598;2024-01-30T02:17:53;46.88;;;23.38;;
57047;SDS011;42934;54.294;18.598;2024-01-30T02:20:22;48.42;;;22.83;;
57047;SDS011;42934;54.294;18.598;2024-01-30T02:22:58;47.20;;;23.13;;
57047;SDS011;42934;54.294;18.598;2024-01-30T02:25:33;53.05;;;23.48;;
57047;SDS011;42934;54.294;18.598;2024-01-30T02:28:03;50.35;;;23.27;;
57047;SDS011;42934;54.294;18.598;2024-01-30T02:30:34;49.22;;;23.92;;
57047;SDS011;42934;54.294;18.598;2024-01-30T02:33:06;43.58;;;21.48;;
57047;SDS011;42934;54.294;18.598;2024-01-30T02:35:35;47.10;;;22.30;;
57047;SDS011;42934;54.294;18.598;2024-01-30T02:38:06;46.35;;;23.70;;
57047;SDS011;42934;54.294;18.598;2024-01-30T02:40:35;47.38;;;22.90;;
57047;SDS011;42934;54.294;18.598;2024-01-30T02:43:04;48.33;;;22.70;;
57047;SDS011;42934;54.294;18.598;2024-01-30T02:45:33;43.75;;;22.50;;
57047;SDS011;42934;54.294;18.598;2024-01-30T02:48:03;45.60;;;22.02;;
57047;SDS011;42934;54.294;18.598;2024-01-30T02:50:33;47.15;;;22.88;;
57047;SDS011;42934;54.294;18.598;2024-01-30T02:53:02;48.47;;;22.67;;
57047;SDS011;42934;54.294;18.598;2024-01-30T02:55:33;45.13;;;22.85;;
57047;SDS011;42934;54.294;18.598;2024-01-30T02:58:02;48.28;;;22.80;;
57047;SDS011;42934;54.294;18.598;2024-01-30T03:00:32;48.10;;;22.20;;
57047;SDS011;42934;54.294;18.598;2024-01-30T03:03:02;49.60;;;23.40;;
57047;SDS011;42934;54.294;18.598;2024-01-30T03:05:33;43.63;;;22.92;;
57047;SDS011;42934;54.294;18.598;2024-01-30T03:08:04;48.05;;;23.95;;
57047;SDS011;42934;54.294;18.598;2024-01-30T03:10:35;43.83;;;20.90;;
57047;SDS011;42934;54.294;18.598;2024-01-30T03:13:05;47.22;;;22.40;;
57047;SDS011;42934;54.294;18.598;2024-01-30T03:15:34;44.45;;;21.83;;
57047;SDS011;42934;54.294;18.598;2024-01-30T03:18:03;42.22;;;20.50;;
57047;SDS011;42934;54.294;18.598;2024-01-30T03:20:33;41.90;;;21.25;;
57047;SDS011;42934;54.294;18.598;2024-01-30T03:23:02;41.10;;;21.60;;
57047;SDS011;42934;54.294;18.598;2024-01-30T03:25:32;46.60;;;21.95;;
57047;SDS011;42934;54.294;18.598;2024-01-30T03:30:32;45.07;;;21.80;;
57047;SDS011;42934;54.294;18.598;2024-01-30T03:33:02;45.67;;;22.02;;
57047;SDS011;42934;54.294;18.598;2024-01-30T03:35:31;50.33;;;23.85;;
57047;SDS011;42934;54.294;18.598;2024-01-30T03:38:00;44.90;;;22.40;;
57047;SDS011;42934;54.294;18.598;2024-01-30T03:40:30;42.55;;;21.23;;
57047;SDS011;42934;54.294;18.598;2024-01-30T03:43:00;41.38;;;20.90;;
57047;SDS011;42934;54.294;18.598;2024-01-30T03:45:30;46.67;;;21.73;;
57047;SDS011;42934;54.294;18.598;2024-01-30T03:47:59;43.33;;;21.17;;
57047;SDS011;42934;54.294;18.598;2024-01-30T03:50:28;47.63;;;23.00;;
57047;SDS011;42934;54.294;18.598;2024-01-30T03:52:57;42.85;;;22.63;;
57047;SDS011;42934;54.294;18.598;2024-01-30T03:55:26;46.40;;;22.13;;
57047;SDS011;42934;54.294;18.598;2024-01-30T03:57:56;46.15;;;23.15;;
57047;SDS011;42934;54.294;18.598;2024-01-30T04:00:26;40.55;;;21.77;;
57047;SDS011;42934;54.294;18.598;2024-01-30T04:02:55;45.42;;;22.55;;
57047;SDS011;42934;54.294;18.598;2024-01-30T04:05:25;44.28;;;21.27;;
57047;SDS011;42934;54.294;18.598;2024-01-30T04:07:54;43.22;;;20.98;;
57047;SDS011;42934;54.294;18.598;2024-01-30T04:10:23;45.87;;;23.67;;
57047;SDS011;42934;54.294;18.598;2024-01-30T04:12:52;45.25;;;22.00;;
57047;SDS011;42934;54.294;18.598;2024-01-30T04:15:22;44.42;;;22.17;;
57047;SDS011;42934;54.294;18.598;2024-01-30T04:17:53;44.03;;;22.63;;
57047;SDS011;42934;54.294;18.598;2024-01-30T04:20:25;44.72;;;20.75;;
57047;SDS011;42934;54.294;18.598;2024-01-30T04:22:54;49.97;;;23.60;;
57047;SDS011;42934;54.294;18.598;2024-01-30T04:25:23;50.22;;;23.95;;
57047;SDS011;42934;54.294;18.598;2024-01-30T04:27:52;42.95;;;22.25;;
57047;SDS011;42934;54.294;18.598;2024-01-30T04:30:22;45.28;;;22.00;;
57047;SDS011;42934;54.294;18.598;2024-01-30T04:32:50;48.15;;;22.88;;
57047;SDS011;42934;54.294;18.598;2024-01-30T04:35:21;51.50;;;24.15;;
57047;SDS011;42934;54.294;18.598;2024-01-30T04:37:52;49.85;;;22.45;;
57047;SDS011;42934;54.294;18.598;2024-01-30T04:40:21;50.38;;;23.17;;
57047;SDS011;42934;54.294;18.598;2024-01-30T04:42:50;46.27;;;22.50;;
57047;SDS011;42934;54.294;18.598;2024-01-30T04:45:20;52.38;;;24.13;;
57047;SDS011;42934;54.294;18.598;2024-01-30T04:47:49;53.25;;;23.73;;
57047;SDS011;42934;54.294;18.598;2024-01-30T04:50:19;49.67;;;23.75;;
57047;SDS011;42934;54.294;18.598;2024-01-30T04:55:19;49.80;;;23.20;;
57047;SDS011;42934;54.294;18.598;2024-01-30T04:57:49;48.05;;;23.10;;
57047;SDS011;42934;54.294;18.598;2024-01-30T05:00:19;55.95;;;25.10;;
57047;SDS011;42934;54.294;18.598;2024-01-30T05:02:48;56.07;;;25.37;;
57047;SDS011;42934;54.294;18.598;2024-01-30T05:05:17;73.55;;;28.13;;
57047;SDS011;42934;54.294;18.598;2024-01-30T05:07:48;67.22;;;29.05;;
57047;SDS011;42934;54.294;18.598;2024-01-30T05:10:17;68.28;;;29.02;;
57047;SDS011;42934;54.294;18.598;2024-01-30T05:12:46;66.28;;;27.90;;
57047;SDS011;42934;54.294;18.598;2024-01-30T05:15:16;53.28;;;24.30;;
57047;SDS011;42934;54.294;18.598;2024-01-30T05:17:45;59.45;;;26.13;;
57047;SDS011;42934;54.294;18.598;2024-01-30T05:20:14;46.72;;;23.20;;
57047;SDS011;42934;54.294;18.598;2024-01-30T05:22:46;47.15;;;24.65;;
57047;SDS011;42934;54.294;18.598;2024-01-30T05:25:15;52.25;;;25.30;;
57047;SDS011;42934;54.294;18.598;2024-01-30T05:27:44;47.85;;;23.75;;
57047;SDS011;42934;54.294;18.598;2024-01-30T05:30:14;52.65;;;24.13;;
57047;SDS011;42934;54.294;18.598;2024-01-30T05:32:43;46.15;;;24.17;;
57047;SDS011;42934;54.294;18.598;2024-01-30T05:35:12;49.07;;;23.77;;
57047;SDS011;42934;54.294;18.598;2024-01-30T05:37:42;49.20;;;25.40;;
57047;SDS011;42934;54.294;18.598;2024-01-30T05:40:13;49.25;;;24.98;;
57047;SDS011;42934;54.294;18.598;2024-01-30T05:42:42;48.38;;;23.85;;
57047;SDS011;42934;54.294;18.598;2024-01-30T05:45:12;49.22;;;23.83;;
57047;SDS011;42934;54.294;18.598;2024-01-30T05:47:41;48.70;;;23.88;;
57047;SDS011;42934;54.294;18.598;2024-01-30T05:50:10;48.60;;;22.65;;
57047;SDS011;42934;54.294;18.598;2024-01-30T05:52:39;52.05;;;24.08;;
57047;SDS011;42934;54.294;18.598;2024-01-30T05:55:09;48.00;;;24.63;;
57047;SDS011;42934;54.294;18.598;2024-01-30T05:57:40;48.67;;;23.63;;
57047;SDS011;42934;54.294;18.598;2024-01-30T06:00:10;47.53;;;23.92;;
57047;SDS011;42934;54.294;18.598;2024-01-30T06:02:40;50.20;;;24.33;;
57047;SDS011;42934;54.294;18.598;2024-01-30T06:05:09;47.47;;;23.47;;
57047;SDS011;42934;54.294;18.598;2024-01-30T06:07:38;52.38;;;24.52;;
57047;SDS011;42934;54.294;18.598;2024-01-30T06:10:08;50.22;;;24.25;;
57047;SDS011;42934;54.294;18.598;2024-01-30T06:12:37;49.22;;;25.10;;
57047;SDS011;42934;54.294;18.598;2024-01-30T06:15:09;46.35;;;23.80;;
57047;SDS011;42934;54.294;18.598;2024-01-30T06:17:39;51.70;;;24.40;;
57047;SDS011;42934;54.294;18.598;2024-01-30T06:20:08;54.20;;;24.65;;
57047;SDS011;42934;54.294;18.598;2024-01-30T06:22:38;58.35;;;26.50;;
57047;SDS011;42934;54.294;18.598;2024-01-30T06:25:07;50.22;;;24.73;;
57047;SDS011;42934;54.294;18.598;2024-01-30T06:27:37;52.42;;;25.20;;
57047;SDS011;42934;54.294;18.598;2024-01-30T06:30:06;51.45;;;24.73;;
57047;SDS011;42934;54.294;18.598;2024-01-30T06:32:37;55.88;;;26.30;;
57047;SDS011;42934;54.294;18.598;2024-01-30T06:35:07;54.58;;;26.33;;
57047;SDS011;42934;54.294;18.598;2024-01-30T06:37:37;63.80;;;27.70;;
57047;SDS011;42934;54.294;18.598;2024-01-30T06:40:07;63.58;;;27.65;;
57047;SDS011;42934;54.294;18.598;2024-01-30T06:42:36;66.65;;;28.75;;
57047;SDS011;42934;54.294;18.598;2024-01-30T06:45:06;63.13;;;27.42;;
57047;SDS011;42934;54.294;18.598;2024-01-30T06:47:37;67.72;;;28.52;;
57047;SDS011;42934;54.294;18.598;2024-01-30T06:50:07;58.88;;;26.90;;
57047;SDS011;42934;54.294;18.598;2024-01-30T06:52:36;61.40;;;26.75;;
57047;SDS011;42934;54.294;18.598;2024-01-30T06:55:06;52.25;;;25.30;;
57047;SDS011;42934;54.294;18.598;2024-01-30T06:57:35;51.92;;;23.45;;
57047;SDS011;42934;54.294;18.598;2024-01-30T07:00:05;47.93;;;22.50;;
57047;SDS011;42934;54.294;18.598;2024-01-30T07:02:35;47.55;;;22.38;;
57047;SDS011;42934;54.294;18.598;2024-01-30T07:05:06;44.60;;;21.88;;
57047;SDS011;42934;54.294;18.598;2024-01-30T07:07:35;41.92;;;21.02;;
57047;SDS011;42934;54.294;18.598;2024-01-30T07:10:05;47.23;;;21.27;;
57047;SDS011;42934;54.294;18.598;2024-01-30T07:12:36;45.70;;;22.27;;
57047;SDS011;42934;54.294;18.598;2024-01-30T07:15:05;43.78;;;22.23;;
57047;SDS011;42934;54.294;18.598;2024-01-30T07:20:06;48.53;;;20.75;;
57047;SDS011;42934;54.294;18.598;2024-01-30T07:22:43;45.65;;;21.27;;
57047;SDS011;42934;54.294;18.598;2024-01-30T07:25:12;44.60;;;21.25;;
57047;SDS011;42934;54.294;18.598;2024-01-30T07:27:42;41.25;;;20.45;;
57047;SDS011;42934;54.294;18.598;2024-01-30T07:30:11;43.70;;;20.53;;
57047;SDS011;42934;54.294;18.598;2024-01-30T07:32:42;41.53;;;21.17;;
57047;SDS011;42934;54.294;18.598;2024-01-30T07:35:11;45.35;;;21.70;;
57047;SDS011;42934;54.294;18.598;2024-01-30T07:37:41;43.95;;;20.63;;
57047;SDS011;42934;54.294;18.598;2024-01-30T07:40:10;41.60;;;20.52;;
57047;SDS011;42934;54.294;18.598;2024-01-30T07:42:39;41.10;;;21.48;;
57047;SDS011;42934;54.294;18.598;2024-01-30T07:45:09;41.83;;;21.45;;
57047;SDS011;42934;54.294;18.598;2024-01-30T07:47:38;43.03;;;20.33;;
57047;SDS011;42934;54.294;18.598;2024-01-30T07:50:09;43.58;;;20.98;;
57047;SDS011;42934;54.294;18.598;2024-01-30T07:52:38;40.15;;;19.58;;
57047;SDS011;42934;54.294;18.598;2024-01-30T07:55:08;39.72;;;19.58;;
57047;SDS011;42934;54.294;18.598;2024-01-30T07:57:38;39.53;;;20.77;;
57047;SDS011;42934;54.294;18.598;2024-01-30T08:00:07;39.40;;;20.05;;
57047;SDS011;42934;54.294;18.598;2024-01-30T08:02:37;49.25;;;21.17;;
57047;SDS011;42934;54.294;18.598;2024-01-30T08:05:08;37.67;;;19.30;;
57047;SDS011;42934;54.294;18.598;2024-01-30T08:07:39;41.17;;;20.25;;
57047;SDS011;42934;54.294;18.598;2024-01-30T08:10:10;42.55;;;20.17;;
57047;SDS011;42934;54.294;18.598;2024-01-30T08:12:40;40.78;;;20.55;;
57047;SDS011;42934;54.294;18.598;2024-01-30T08:15:10;41.03;;;20.73;;
57047;SDS011;42934;54.294;18.598;2024-01-30T08:17:40;41.25;;;20.30;;
57047;SDS011;42934;54.294;18.598;2024-01-30T08:20:11;39.53;;;19.30;;
57047;SDS011;42934;54.294;18.598;2024-01-30T08:22:40;40.78;;;20.10;;
57047;SDS011;42934;54.294;18.598;2024-01-30T08:25:10;37.58;;;19.35;;
57047;SDS011;42934;54.294;18.598;2024-01-30T08:27:39;37.80;;;19.47;;
57047;SDS011;42934;54.294;18.598;2024-01-30T08:30:09;39.20;;;19.25;;
57047;SDS011;42934;54.294;18.598;2024-01-30T08:32:38;40.40;;;20.20;;
57047;SDS011;42934;54.294;18.598;2024-01-30T08:35:08;40.85;;;19.67;;
57047;SDS011;42934;54.294;18.598;2024-01-30T08:37:41;38.03;;;19.48;;
57047;SDS011;42934;54.294;18.598;2024-01-30T08:40:10;41.38;;;19.45;;
57047;SDS011;42934;54.294;18.598;2024-01-30T08:42:39;41.60;;;19.97;;
57047;SDS011;42934;54.294;18.598;2024-01-30T08:45:09;35.40;;;18.80;;
57047;SDS011;42934;54.294;18.598;2024-01-30T08:47:38;41.47;;;19.27;;
57047;SDS011;42934;54.294;18.598;2024-01-30T08:50:10;37.25;;;18.38;;
57047;SDS011;42934;54.294;18.598;2024-01-30T08:55:08;36.90;;;18.13;;
57047;SDS011;42934;54.294;18.598;2024-01-30T08:57:38;32.78;;;16.65;;
57047;SDS011;42934;54.294;18.598;2024-01-30T09:00:08;41.30;;;19.90;;
57047;SDS011;42934;54.294;18.598;2024-01-30T09:05:07;41.90;;;19.70;;
57047;SDS011;42934;54.294;18.598;2024-01-30T09:07:38;39.20;;;20.38;;
57047;SDS011;42934;54.294;18.598;2024-01-30T09:10:08;38.10;;;18.75;;
57047;SDS011;42934;54.294;18.598;2024-01-30T09:12:40;40.30;;;20.30;;
57047;SDS011;42934;54.294;18.598;2024-01-30T09:15:10;59.60;;;31.48;;
57047;SDS011;42934;54.294;18.598;2024-01-30T09:17:39;45.67;;;24.55;;
57047;SDS011;42934;54.294;18.598;2024-01-30T09:20:08;40.80;;;21.98;;
57047;SDS011;42934;54.294;18.598;2024-01-30T09:22:40;44.88;;;24.15;;
57047;SDS011;42934;54.294;18.598;2024-01-30T09:25:09;47.05;;;22.85;;
57047;SDS011;42934;54.294;18.598;2024-01-30T09:27:38;45.97;;;22.40;;
57047;SDS011;42934;54.294;18.598;2024-01-30T09:30:08;38.57;;;20.47;;
57047;SDS011;42934;54.294;18.598;2024-01-30T09:32:39;46.53;;;20.20;;
57047;SDS011;42934;54.294;18.598;2024-01-30T09:35:09;37.25;;;17.33;;
57047;SDS011;42934;54.294;18.598;2024-01-30T09:37:39;37.40;;;19.88;;
57047;SDS011;42934;54.294;18.598;2024-01-30T09:40:09;38.40;;;19.17;;
57047;SDS011;42934;54.294;18.598;2024-01-30T09:42:39;37.95;;;19.20;;
57047;SDS011;42934;54.294;18.598;2024-01-30T09:45:11;43.50;;;20.77;;
57047;SDS011;42934;54.294;18.598;2024-01-30T09:47:43;37.90;;;20.00;;
57047;SDS011;42934;54.294;18.598;2024-01-30T09:50:14;38.70;;;19.88;;
57047;SDS011;42934;54.294;18.598;2024-01-30T09:52:45;38.30;;;21.02;;
57047;SDS011;42934;54.294;18.598;2024-01-30T09:55:15;40.92;;;21.60;;
57047;SDS011;42934;54.294;18.598;2024-01-30T09:57:44;40.42;;;21.35;;
57047;SDS011;42934;54.294;18.598;2024-01-30T10:00:14;41.53;;;20.83;;
57047;SDS011;42934;54.294;18.598;2024-01-30T10:02:44;38.22;;;20.92;;
57047;SDS011;42934;54.294;18.598;2024-01-30T10:05:14;45.10;;;22.73;;
57047;SDS011;42934;54.294;18.598;2024-01-30T10:07:52;41.45;;;19.88;;
57047;SDS011;42934;54.294;18.598;2024-01-30T10:10:23;37.47;;;20.45;;
57047;SDS011;42934;54.294;18.598;2024-01-30T10:12:53;41.28;;;21.30;;
57047;SDS011;42934;54.294;18.598;2024-01-30T10:15:22;43.30;;;22.00;;
57047;SDS011;42934;54.294;18.598;2024-01-30T10:17:51;43.67;;;20.92;;
57047;SDS011;42934;54.294;18.598;2024-01-30T10:20:21;38.88;;;20.73;;
57047;SDS011;42934;54.294;18.598;2024-01-30T10:22:54;39.47;;;19.63;;
57047;SDS011;42934;54.294;18.598;2024-01-30T10:25:23;36.00;;;19.00;;
57047;SDS011;42934;54.294;18.598;2024-01-30T10:27:53;33.38;;;18.55;;
57047;SDS011;42934;54.294;18.598;2024-01-30T10:30:23;37.33;;;18.60;;
57047;SDS011;42934;54.294;18.598;2024-01-30T10:32:52;49.93;;;21.37;;
57047;SDS011;42934;54.294;18.598;2024-01-30T10:35:22;43.33;;;21.55;;
57047;SDS011;42934;54.294;18.598;2024-01-30T10:37:51;48.38;;;21.35;;
57047;SDS011;42934;54.294;18.598;2024-01-30T10:40:26;36.70;;;19.80;;
57047;SDS011;42934;54.294;18.598;2024-01-30T10:42:57;37.58;;;18.25;;
57047;SDS011;42934;54.294;18.598;2024-01-30T10:45:31;40.00;;;20.10;;
57047;SDS011;42934;54.294;18.598;2024-01-30T10:48:02;44.00;;;21.20;;
57047;SDS011;42934;54.294;18.598;2024-01-30T10:50:33;37.70;;;18.90;;
57047;SDS011;42934;54.294;18.598;2024-01-30T10:53:17;36.20;;;18.08;;
57047;SDS011;42934;54.294;18.598;2024-01-30T10:55:47;33.80;;;18.55;;
57047;SDS011;42934;54.294;18.598;2024-01-30T10:58:19;34.42;;;18.15;;
57047;SDS011;42934;54.294;18.598;2024-01-30T11:00:48;34.58;;;17.48;;
57047;SDS011;42934;54.294;18.598;2024-01-30T11:03:19;31.63;;;17.60;;
57047;SDS011;42934;54.294;18.598;2024-01-30T11:05:49;36.05;;;18.13;;
57047;SDS011;42934;54.294;18.598;2024-01-30T11:10:55;32.28;;;16.42;;
57047;SDS011;42934;54.294;18.598;2024-01-30T11:13:26;34.47;;;16.95;;
57047;SDS011;42934;54.294;18.598;2024-01-30T11:16:00;29.88;;;16.75;;
57047;SDS011;42934;54.294;18.598;2024-01-30T11:18:30;37.13;;;18.92;;
57047;SDS011;42934;54.294;18.598;2024-01-30T11:21:01;37.25;;;19.63;;
57047;SDS011;42934;54.294;18.598;2024-01-30T11:23:34;37.50;;;19.27;;
57047;SDS011;42934;54.294;18.598;2024-01-30T11:26:04;38.38;;;18.48;;
57047;SDS011;42934;54.294;18.598;2024-01-30T11:28:35;33.30;;;19.35;;
57047;SDS011;42934;54.294;18.598;2024-01-30T11:31:07;39.38;;;19.38;;
57047;SDS011;42934;54.294;18.598;2024-01-30T11:33:36;35.97;;;19.30;;
57047;SDS011;42934;54.294;18.598;2024-01-30T11:36:06;40.13;;;19.52;;
57047;SDS011;42934;54.294;18.598;2024-01-30T11:38:37;35.60;;;19.67;;
57047;SDS011;42934;54.294;18.598;2024-01-30T11:41:09;36.35;;;19.10;;
57047;SDS011;42934;54.294;18.598;2024-01-30T11:43:38;35.78;;;18.70;;
57047;SDS011;42934;54.294;18.598;2024-01-30T11:46:07;37.10;;;17.65;;
57047;SDS011;42934;54.294;18.598;2024-01-30T11:48:37;33.47;;;18.05;;
57047;SDS011;42934;54.294;18.598;2024-01-30T11:51:06;38.67;;;19.07;;
57047;SDS011;42934;54.294;18.598;2024-01-30T11:53:35;35.88;;;18.42;;
57047;SDS011;42934;54.294;18.598;2024-01-30T11:56:06;32.08;;;17.75;;
57047;SDS011;42934;54.294;18.598;2024-01-30T11:58:35;32.88;;;18.42;;
57047;SDS011;42934;54.294;18.598;2024-01-30T12:01:05;30.00;;;18.20;;
57047;SDS011;42934;54.294;18.598;2024-01-30T12:03:34;30.27;;;16.85;;
57047;SDS011;42934;54.294;18.598;2024-01-30T12:06:03;33.22;;;18.58;;
57047;SDS011;42934;54.294;18.598;2024-01-30T12:08:34;29.40;;;17.42;;
57047;SDS011;42934;54.294;18.598;2024-01-30T12:11:06;34.58;;;17.75;;
57047;SDS011;42934;54.294;18.598;2024-01-30T12:13:35;28.45;;;16.52;;
57047;SDS011;42934;54.294;18.598;2024-01-30T12:16:05;33.45;;;17.48;;
57047;SDS011;42934;54.294;18.598;2024-01-30T12:18:35;27.23;;;17.13;;
57047;SDS011;42934;54.294;18.598;2024-01-30T12:21:04;33.58;;;17.58;;
57047;SDS011;42934;54.294;18.598;2024-01-30T12:23:35;33.67;;;17.00;;
57047;SDS011;42934;54.294;18.598;2024-01-30T12:26:06;31.43;;;16.67;;
57047;SDS011;42934;54.294;18.598;2024-01-30T12:28:35;33.80;;;17.10;;
57047;SDS011;42934;54.294;18.598;2024-01-30T12:31:04;33.60;;;17.42;;
57047;SDS011;42934;54.294;18.598;2024-01-30T12:33:35;35.15;;;17.25;;
57047;SDS011;42934;54.294;18.598;2024-01-30T12:36:05;34.55;;;17.77;;
57047;SDS011;42934;54.294;18.598;2024-01-30T12:38:35;33.80;;;18.13;;
57047;SDS011;42934;54.294;18.598;2024-01-30T12:41:07;30.97;;;16.53;;
57047;SDS011;42934;54.294;18.598;2024-01-30T12:43:37;35.40;;;18.10;;
57047;SDS011;42934;54.294;18.598;2024-01-30T12:46:06;33.17;;;16.85;;
57047;SDS011;42934;54.294;18.598;2024-01-30T12:48:36;34.95;;;17.60;;
57047;SDS011;42934;54.294;18.598;2024-01-30T12:51:05;36.05;;;17.95;;
57047;SDS011;42934;54.294;18.598;2024-01-30T12:53:34;31.75;;;16.85;;
57047;SDS011;42934;54.294;18.598;2024-01-30T12:56:04;37.38;;;17.20;;
57047;SDS011;42934;54.294;18.598;2024-01-30T12:58:34;31.05;;;16.35;;
57047;SDS011;42934;54.294;18.598;2024-01-30T13:01:04;32.95;;;16.90;;
57047;SDS011;42934;54.294;18.598;2024-01-30T13:03:33;31.85;;;17.15;;
57047;SDS011;42934;54.294;18.598;2024-01-30T13:06:04;34.78;;;16.45;;
57047;SDS011;42934;54.294;18.598;2024-01-30T13:08:33;31.87;;;15.87;;
57047;SDS011;42934;54.294;18.598;2024-01-30T13:11:02;31.13;;;16.88;;
57047;SDS011;42934;54.294;18.598;2024-01-30T13:13:32;31.02;;;15.57;;
57047;SDS011;42934;54.294;18.598;2024-01-30T13:16:04;28.75;;;17.38;;
57047;SDS011;42934;54.294;18.598;2024-01-30T13:18:33;31.92;;;17.90;;
57047;SDS011;42934;54.294;18.598;2024-01-30T13:21:03;31.77;;;17.08;;
57047;SDS011;42934;54.294;18.598;2024-01-30T13:23:32;30.33;;;16.40;;
57047;SDS011;42934;54.294;18.598;2024-01-30T13:26:01;30.63;;;17.17;;
57047;SDS011;42934;54.294;18.598;2024-01-30T13:28:30;29.75;;;16.42;;
57047;SDS011;42934;54.294;18.598;2024-01-30T13:31:01;32.45;;;16.70;;
57047;SDS011;42934;54.294;18.598;2024-01-30T13:33:32;29.48;;;14.95;;
57047;SDS011;42934;54.294;18.598;2024-01-30T13:36:01;36.73;;;17.13;;
57047;SDS011;42934;54.294;18.598;2024-01-30T13:38:31;30.02;;;16.33;;
57047;SDS011;42934;54.294;18.598;2024-01-30T13:41:00;32.30;;;17.03;;
57047;SDS011;42934;54.294;18.598;2024-01-30T13:43:29;33.65;;;16.17;;
57047;SDS011;42934;54.294;18.598;2024-01-30T13:45:59;29.67;;;16.17;;
57047;SDS011;42934;54.294;18.598;2024-01-30T13:48:29;31.90;;;15.77;;
57047;SDS011;42934;54.294;18.598;2024-01-30T13:50:59;29.17;;;15.30;;
57047;SDS011;42934;54.294;18.598;2024-01-30T13:53:28;30.50;;;15.25;;
57047;SDS011;42934;54.294;18.598;2024-01-30T13:55:58;29.60;;;15.23;;
57047;SDS011;42934;54.294;18.598;2024-01-30T13:58:27;27.10;;;15.70;;
57047;SDS011;42934;54.294;18.598;2024-01-30T14:00:56;29.23;;;15.27;;
57047;SDS011;42934;54.294;18.598;2024-01-30T14:03:25;26.13;;;14.88;;
57047;SDS011;42934;54.294;18.598;2024-01-30T14:05:57;26.20;;;14.43;;
57047;SDS011;42934;54.294;18.598;2024-01-30T14:08:26;31.83;;;15.75;;
57047;SDS011;42934;54.294;18.598;2024-01-30T14:10:56;34.08;;;15.45;;
57047;SDS011;42934;54.294;18.598;2024-01-30T14:13:25;31.20;;;16.33;;
57047;SDS011;42934;54.294;18.598;2024-01-30T14:15:55;30.02;;;15.95;;
57047;SDS011;42934;54.294;18.598;2024-01-30T14:20:54;30.52;;;16.30;;
57047;SDS011;42934;54.294;18.598;2024-01-30T14:23:24;31.65;;;16.25;;
57047;SDS011;42934;54.294;18.598;2024-01-30T14:25:53;30.63;;;17.33;;
57047;SDS011;42934;54.294;18.598;2024-01-30T14:28:22;32.67;;;17.08;;
57047;SDS011;42934;54.294;18.598;2024-01-30T14:30:52;27.40;;;16.17;;
57047;SDS011;42934;54.294;18.598;2024-01-30T14:33:21;31.58;;;16.92;;
57047;SDS011;42934;54.294;18.598;2024-01-30T14:35:50;33.80;;;17.60;;
57047;SDS011;42934;54.294;18.598;2024-01-30T14:38:21;30.80;;;16.60;;
57047;SDS011;42934;54.294;18.598;2024-01-30T14:40:52;37.78;;;17.30;;
57047;SDS011;42934;54.294;18.598;2024-01-30T14:43:21;34.45;;;17.02;;
57047;SDS011;42934;54.294;18.598;2024-01-30T14:45:50;33.65;;;18.08;;
57047;SDS011;42934;54.294;18.598;2024-01-30T14:48:19;33.58;;;17.75;;